Main page
METAR-TAF:

METAR-TAF

Airports :

Norfolk Regional Airport

Norfolk, Nebraska, United States

latitude: 41-58-50N, longitude: 097-26-13W, elevation: 1571 ft

Current weather observation

The report was made 17 minutes ago, at 13:56 UTC
Wind 6 mph from the South
Temperature 27°F
Humidity 93%
Pressure 30.01 in. Hg
Visibility: 7 miles
Clear sky

METAR: KOFK 221356Z AUTO 17005KT 7SM CLR M03/M04 A3001 RMK AO2 SLP177 T10281044

Time: 08:13 (14:13 UTC)

Forecast

The report was made 2 hours and 50 minutes ago, at 11:23 UTC
Forecast valid from 22 at 12 UTC to 23 at 12 UTC
Wind 5 mph from the South
Visibility: 6 miles
Clear sky
From 22 at 1600 UTC
Wind 7 mph from the South/Southwest
Visibility: 6 miles
Few clouds at a height of 25000 ft
From 22 at 1900 UTC
Wind 10 mph from the West/Southwest
Visibility: 6 miles
Clear sky
From 22 at 2100 UTC
Wind 10 mph from the West
Visibility: 6 miles
Clear sky

TAF: KOFK 221123Z 2212/2312 18004KT P6SM SKC FM221600 21006KT P6SM FEW250 FM221900 25009KT P6SM SKC FM222100 28009KT P6SM SKC

Weather observations and forecasts of more than 4000 airports (METAR and TAF reports).

The available stations are represented by yellow and red dots on the map.

Hover mouse over dot to see the name of the station.

Then click to see weather observations and forecasts.

To change the map : click on the green buttons with a black cross to zoom in, on the green button with a dash to zoom out, or on the green arrows for adjacent maps.


METAR-TAF: